createdAt,value
2023-02-27T00:00:00.879Z,2.91
2023-02-27T00:02:27.791Z,2.88
2023-02-27T00:04:54.703Z,2.96
2023-02-27T00:07:26.105Z,2.82
2023-02-27T00:09:53.293Z,2.87
2023-02-27T00:12:20.268Z,2.88
2023-02-27T00:14:46.947Z,2.91
2023-02-27T00:17:13.645Z,2.85
2023-02-27T00:19:40.343Z,2.89
2023-02-27T00:22:06.980Z,2.91
2023-02-27T00:24:33.663Z,2.92
2023-02-27T00:27:00.332Z,2.80
2023-02-27T00:29:27.002Z,2.90
2023-02-27T00:31:53.742Z,2.86
2023-02-27T00:34:20.464Z,2.82
2023-02-27T00:36:47.108Z,2.76
2023-02-27T00:39:15.624Z,2.80
2023-02-27T00:41:42.378Z,2.80
2023-02-27T00:44:08.985Z,2.75
2023-02-27T00:46:35.786Z,2.76
2023-02-27T00:49:02.430Z,2.67
2023-02-27T00:51:29.256Z,2.68
2023-02-27T00:53:56.128Z,2.72
2023-02-27T00:56:22.988Z,2.68
2023-02-27T00:58:50.370Z,2.63
2023-02-27T01:01:17.041Z,2.68
2023-02-27T01:03:43.739Z,2.72
2023-02-27T01:06:10.730Z,2.68
2023-02-27T01:08:37.409Z,2.55
2023-02-27T01:11:05.512Z,2.62
2023-02-27T01:13:32.469Z,2.66
2023-02-27T01:15:59.222Z,2.61
2023-02-27T01:18:25.905Z,2.66
2023-02-27T01:20:55.741Z,2.44
2023-02-27T01:23:23.269Z,2.41
2023-02-27T01:25:49.933Z,2.51
2023-02-27T01:28:17.036Z,2.60
2023-02-27T01:30:44.623Z,2.57
2023-02-27T01:33:14.331Z,2.58
2023-02-27T01:35:40.980Z,2.52
2023-02-27T01:38:07.672Z,2.49
2023-02-27T01:40:39.430Z,2.53
2023-02-27T01:43:14.315Z,2.54
2023-02-27T01:45:43.149Z,2.44
2023-02-27T01:48:26.746Z,2.44
2023-02-27T01:51:01.244Z,2.32
2023-02-27T01:53:30.526Z,2.33
2023-02-27T01:56:17.917Z,2.41
2023-02-27T01:58:45.959Z,2.41
2023-02-27T02:01:13.143Z,2.32
2023-02-27T02:04:02.671Z,2.39
2023-02-27T02:06:34.900Z,2.25
2023-02-27T02:09:02.631Z,2.37
2023-02-27T02:11:29.790Z,2.28
2023-02-27T02:13:59.927Z,2.34
2023-02-27T02:16:43.771Z,2.33
2023-02-27T02:19:36.666Z,2.25
2023-02-27T02:22:18.913Z,2.31
2023-02-27T02:25:02.795Z,2.30
2023-02-27T02:27:44.683Z,2.27
2023-02-27T02:30:48.821Z,2.23
2023-02-27T02:33:54.043Z,2.24
2023-02-27T02:36:58.379Z,2.12
2023-02-27T02:39:30.362Z,1.98
2023-02-27T02:42:04.931Z,2.22
2023-02-27T02:45:20.502Z,2.06
2023-02-27T02:48:02.128Z,2.09
2023-02-27T02:50:41.653Z,2.12
2023-02-27T02:53:23.108Z,2.09
2023-02-27T02:55:57.536Z,1.97
2023-02-27T02:58:29.846Z,2.04
2023-02-27T03:01:10.125Z,2.01
2023-02-27T03:04:02.288Z,2.06
2023-02-27T03:06:37.159Z,1.90
2023-02-27T03:09:21.477Z,2.08
2023-02-27T03:11:53.205Z,2.04
2023-02-27T03:14:32.292Z,1.96
2023-02-27T03:17:05.626Z,1.78
2023-02-27T03:19:43.576Z,1.86
2023-02-27T03:22:30.257Z,1.95
2023-02-27T03:25:01.057Z,1.89
2023-02-27T03:27:33.666Z,1.87
2023-02-27T03:32:43.865Z,1.79
2023-02-27T03:35:12.508Z,1.84
2023-02-27T03:37:39.440Z,1.79
2023-02-27T03:40:37.516Z,1.69
2023-02-27T03:43:11.615Z,1.79
2023-02-27T03:46:07.639Z,1.74
2023-02-27T03:48:34.798Z,1.78
2023-02-27T03:51:02.669Z,1.71
2023-02-27T03:53:37.682Z,1.66
2023-02-27T03:56:06.999Z,1.65
2023-02-27T03:58:33.950Z,1.71
2023-02-27T04:01:01.084Z,1.72
2023-02-27T04:03:28.084Z,1.53
2023-02-27T04:05:54.818Z,1.66
2023-02-27T04:08:50.926Z,1.68
2023-02-27T04:11:55.000Z,1.62
2023-02-27T04:14:38.422Z,1.73
2023-02-27T04:17:25.978Z,1.64
2023-02-27T04:20:13.426Z,1.73
2023-02-27T04:23:02.703Z,1.71
2023-02-27T04:25:35.436Z,1.63
2023-02-27T04:28:27.094Z,1.63
2023-02-27T04:31:32.763Z,1.61
2023-02-27T04:34:10.423Z,1.53
2023-02-27T04:36:36.978Z,1.60
2023-02-27T04:39:15.643Z,1.64
2023-02-27T04:41:51.791Z,1.54
2023-02-27T04:44:20.576Z,1.62
2023-02-27T04:46:48.658Z,1.60
2023-02-27T04:49:21.487Z,1.60
2023-02-27T04:51:54.383Z,1.55
2023-02-27T04:54:29.391Z,1.53
2023-02-27T04:57:02.079Z,1.67
2023-02-27T04:59:32.820Z,1.51
2023-02-27T05:02:05.769Z,1.60
2023-02-27T05:04:37.422Z,1.67
2023-02-27T05:07:07.948Z,1.59
2023-02-27T05:09:40.356Z,1.63
2023-02-27T05:12:29.635Z,1.59
2023-02-27T05:15:08.436Z,1.53
2023-02-27T05:17:41.201Z,1.55
2023-02-27T05:20:08.861Z,1.55
2023-02-27T05:22:42.701Z,1.55
2023-02-27T05:25:13.703Z,1.59
2023-02-27T05:28:02.537Z,1.36
2023-02-27T05:30:34.397Z,1.59
2023-02-27T05:33:11.207Z,1.54
2023-02-27T05:36:05.650Z,1.44
2023-02-27T05:38:38.551Z,1.46
2023-02-27T05:41:24.285Z,1.45
2023-02-27T05:43:57.211Z,1.48
2023-02-27T05:46:29.219Z,1.42
2023-02-27T05:49:02.661Z,1.52
2023-02-27T05:51:33.522Z,1.47
2023-02-27T05:54:07.029Z,1.43
2023-02-27T05:56:37.034Z,1.47
2023-02-27T05:59:09.727Z,1.49
2023-02-27T06:01:36.525Z,1.54
2023-02-27T06:04:03.442Z,1.33
2023-02-27T06:06:31.130Z,1.46
2023-02-27T06:08:57.842Z,1.45
2023-02-27T06:11:24.545Z,1.48
2023-02-27T06:13:51.134Z,1.46
2023-02-27T06:16:17.993Z,1.32
2023-02-27T06:18:44.620Z,1.39
2023-02-27T06:21:12.889Z,1.43
2023-02-27T06:23:39.502Z,1.44
2023-02-27T06:26:06.234Z,1.41
2023-02-27T06:28:32.925Z,1.46
2023-02-27T06:30:59.579Z,1.49
2023-02-27T06:33:26.281Z,1.46
2023-02-27T06:35:53.977Z,1.39
2023-02-27T06:38:20.829Z,1.31
2023-02-27T06:40:47.494Z,1.41
2023-02-27T06:43:14.868Z,1.46
2023-02-27T06:45:41.538Z,1.46
2023-02-27T06:48:08.342Z,1.51
2023-02-27T06:50:35.238Z,1.48
2023-02-27T06:53:01.909Z,1.55
2023-02-27T06:55:28.625Z,1.57
2023-02-27T06:57:55.223Z,1.67
2023-02-27T07:00:22.236Z,1.54
2023-02-27T07:02:48.988Z,1.65
2023-02-27T07:05:16.112Z,1.66
2023-02-27T07:07:42.749Z,1.82
2023-02-27T07:10:12.677Z,1.87
2023-02-27T07:12:39.977Z,2.07
2023-02-27T07:15:08.370Z,2.03
2023-02-27T07:17:35.207Z,2.19
2023-02-27T07:20:01.852Z,2.35
2023-02-27T07:22:28.519Z,2.68
2023-02-27T07:24:55.183Z,3.16
2023-02-27T07:27:21.870Z,3.60
2023-02-27T07:29:48.515Z,4.38
2023-02-27T07:32:15.344Z,5.53
2023-02-27T07:34:42.040Z,6.59
2023-02-27T07:37:08.942Z,7.83
2023-02-27T07:39:35.674Z,8.60
2023-02-27T07:42:02.398Z,9.49
2023-02-27T07:44:29.160Z,10.55
2023-02-27T07:46:55.765Z,11.22
2023-02-27T07:49:22.610Z,11.66
2023-02-27T07:51:49.278Z,10.94
2023-02-27T07:54:15.920Z,11.35
2023-02-27T07:56:42.790Z,11.25
2023-02-27T07:59:09.541Z,11.64
2023-02-27T08:01:36.246Z,12.62
2023-02-27T08:04:02.923Z,12.65
2023-02-27T08:06:30.005Z,13.32
2023-02-27T08:08:56.856Z,13.42
2023-02-27T08:11:23.830Z,13.42
2023-02-27T08:14:05.935Z,13.71
2023-02-27T08:16:33.494Z,13.91
2023-02-27T08:19:01.449Z,13.22
2023-02-27T08:21:29.602Z,13.30
2023-02-27T08:23:56.482Z,14.11
2023-02-27T08:26:23.393Z,14.51
2023-02-27T08:28:50.020Z,15.16
2023-02-27T08:31:16.754Z,14.45
2023-02-27T08:33:43.508Z,15.33
2023-02-27T08:36:10.270Z,15.00
2023-02-27T08:38:36.998Z,16.23
2023-02-27T08:41:04.068Z,16.10
2023-02-27T08:43:30.879Z,16.62
2023-02-27T08:45:57.778Z,17.06
2023-02-27T08:48:24.898Z,17.61
2023-02-27T08:50:51.756Z,18.46
2023-02-27T08:53:18.569Z,19.62
2023-02-27T08:55:49.996Z,19.09
2023-02-27T08:58:18.184Z,19.51
2023-02-27T09:00:45.273Z,20.09
2023-02-27T09:03:12.396Z,19.06
2023-02-27T09:05:39.381Z,19.87
2023-02-27T09:08:07.098Z,18.14
2023-02-27T09:10:34.420Z,19.17
2023-02-27T09:13:01.187Z,20.24
2023-02-27T09:15:27.878Z,19.54
2023-02-27T09:17:56.494Z,18.80
2023-02-27T09:20:23.376Z,19.23
2023-02-27T09:22:50.149Z,18.23
2023-02-27T09:25:16.871Z,19.23
2023-02-27T09:27:43.564Z,19.85
2023-02-27T09:30:10.969Z,20.57
2023-02-27T09:32:37.966Z,20.45
2023-02-27T09:35:05.040Z,21.37
2023-02-27T09:37:31.718Z,21.68
2023-02-27T09:39:58.379Z,21.38
2023-02-27T09:42:28.523Z,20.39
2023-02-27T09:45:05.472Z,21.45
2023-02-27T09:47:40.685Z,21.85
2023-02-27T09:50:18.351Z,20.49
2023-02-27T09:52:45.182Z,20.60
2023-02-27T09:55:23.378Z,21.01
2023-02-27T09:57:56.869Z,21.44
2023-02-27T10:00:57.031Z,20.42
2023-02-27T10:03:43.295Z,19.24
2023-02-27T10:06:19.013Z,18.78
2023-02-27T10:08:51.464Z,19.51
2023-02-27T10:11:31.325Z,20.17
2023-02-27T10:14:03.656Z,20.26
2023-02-27T10:16:32.869Z,19.53
2023-02-27T10:19:03.389Z,18.75
2023-02-27T10:21:38.459Z,19.56
2023-02-27T10:24:23.944Z,20.51
2023-02-27T10:26:55.236Z,20.29
2023-02-27T10:29:32.044Z,20.75
2023-02-27T10:32:19.953Z,20.81
2023-02-27T10:35:00.536Z,21.67
2023-02-27T10:37:28.003Z,22.88
2023-02-27T10:40:01.046Z,24.01
2023-02-27T10:42:32.976Z,25.09
2023-02-27T10:44:59.751Z,23.36
2023-02-27T10:47:27.051Z,22.59
2023-02-27T10:49:54.611Z,22.52
2023-02-27T10:52:21.515Z,22.57
2023-02-27T10:54:48.692Z,22.95
2023-02-27T10:57:25.355Z,22.51
2023-02-27T10:59:55.850Z,22.15
2023-02-27T11:02:26.829Z,23.64
2023-02-27T11:04:56.192Z,23.02
2023-02-27T11:07:32.001Z,24.31
2023-02-27T11:10:24.209Z,24.35
2023-02-27T11:13:06.529Z,23.63
2023-02-27T11:15:35.908Z,23.37
2023-02-27T11:18:18.616Z,23.40
2023-02-27T11:20:50.481Z,23.93
2023-02-27T11:23:20.932Z,23.38
2023-02-27T11:25:48.136Z,23.28
2023-02-27T11:28:23.457Z,24.54
2023-02-27T11:31:03.572Z,24.32
2023-02-27T11:33:35.848Z,23.02
2023-02-27T11:36:03.722Z,22.97
2023-02-27T11:38:32.394Z,23.23
2023-02-27T11:41:04.918Z,24.93
2023-02-27T11:43:33.746Z,24.00
2023-02-27T11:46:33.763Z,24.21
2023-02-27T11:49:22.924Z,23.79
2023-02-27T11:52:16.237Z,24.85
2023-02-27T11:54:47.297Z,23.63
2023-02-27T11:57:46.584Z,23.09
2023-02-27T12:00:31.252Z,23.50
2023-02-27T12:03:16.039Z,23.54
2023-02-27T12:06:05.315Z,22.46
2023-02-27T12:08:50.341Z,22.25
2023-02-27T12:11:28.241Z,22.34
2023-02-27T12:14:21.319Z,22.74
2023-02-27T12:16:59.789Z,22.83
2023-02-27T12:19:37.539Z,22.37
2023-02-27T12:22:24.848Z,22.79
2023-02-27T12:25:07.178Z,21.47
2023-02-27T12:27:53.518Z,21.73
2023-02-27T12:30:25.068Z,21.67
2023-02-27T12:33:18.138Z,19.52
2023-02-27T12:35:50.318Z,17.99
2023-02-27T12:38:18.626Z,16.46
2023-02-27T12:41:07.358Z,16.05
2023-02-27T12:43:48.497Z,15.58
2023-02-27T12:46:51.823Z,14.36
2023-02-27T12:49:24.521Z,13.55
2023-02-27T12:52:19.592Z,13.19
2023-02-27T12:54:58.841Z,12.60
2023-02-27T12:57:50.229Z,12.28
2023-02-27T13:00:22.831Z,11.39
2023-02-27T13:03:11.386Z,11.36
2023-02-27T13:06:17.048Z,10.73
2023-02-27T13:09:01.159Z,10.49
2023-02-27T13:11:43.492Z,10.09
2023-02-27T13:14:38.112Z,10.05
2023-02-27T13:17:16.720Z,9.69
2023-02-27T13:20:06.709Z,10.04
2023-02-27T13:22:48.133Z,10.15
2023-02-27T13:25:17.063Z,10.21
2023-02-27T13:28:00.158Z,10.17
2023-02-27T13:30:39.174Z,10.19
2023-02-27T13:33:21.937Z,10.07
2023-02-27T13:36:03.584Z,10.15
2023-02-27T13:38:46.805Z,9.95
2023-02-27T13:41:29.083Z,10.00
2023-02-27T13:44:01.256Z,9.92
2023-02-27T13:46:32.532Z,10.06
2023-02-27T13:49:05.490Z,9.84
2023-02-27T13:51:45.804Z,9.68
2023-02-27T13:54:18.517Z,9.92
2023-02-27T13:57:19.521Z,9.62
2023-02-27T13:59:53.720Z,9.76
2023-02-27T14:02:56.427Z,9.81
2023-02-27T14:05:30.273Z,9.89
2023-02-27T14:08:12.475Z,9.61
2023-02-27T14:10:49.912Z,9.55
2023-02-27T14:13:51.018Z,9.46
2023-02-27T14:16:44.124Z,9.40
2023-02-27T14:19:19.861Z,9.50
2023-02-27T14:22:12.474Z,9.13
2023-02-27T14:25:02.031Z,9.03
2023-02-27T14:27:32.936Z,9.16
2023-02-27T14:30:04.466Z,8.88
2023-02-27T14:32:36.527Z,8.48
2023-02-27T14:35:05.852Z,8.35
2023-02-27T14:37:33.027Z,8.51
2023-02-27T14:40:03.326Z,8.72
2023-02-27T14:42:36.080Z,8.88
2023-02-27T14:45:03.898Z,8.86
2023-02-27T14:47:36.632Z,8.87
2023-02-27T14:50:06.326Z,8.75
2023-02-27T14:52:41.897Z,8.72
2023-02-27T14:55:27.971Z,8.85
2023-02-27T14:58:08.970Z,8.57
2023-02-27T15:00:53.625Z,8.50
2023-02-27T15:03:23.803Z,8.61
2023-02-27T15:05:53.115Z,8.67
2023-02-27T15:08:24.021Z,8.82
2023-02-27T15:10:52.815Z,8.55
2023-02-27T15:13:29.388Z,8.58
2023-02-27T15:16:24.227Z,8.50
2023-02-27T15:18:53.535Z,8.48
2023-02-27T15:21:22.758Z,8.63
2023-02-27T15:23:58.260Z,8.50
2023-02-27T15:26:26.897Z,8.36
2023-02-27T15:28:54.066Z,8.52
2023-02-27T15:31:23.580Z,8.40
2023-02-27T15:33:51.244Z,8.25
2023-02-27T15:36:26.537Z,8.19
2023-02-27T15:39:17.503Z,8.21
2023-02-27T15:41:55.889Z,8.23
2023-02-27T15:44:48.887Z,7.89
2023-02-27T15:47:25.515Z,7.83
2023-02-27T15:50:07.238Z,7.58
2023-02-27T15:52:42.114Z,7.56
2023-02-27T15:55:22.126Z,7.71
2023-02-27T15:58:02.056Z,7.76
2023-02-27T16:00:31.730Z,7.86
2023-02-27T16:02:59.284Z,7.82
2023-02-27T16:05:38.261Z,7.69
2023-02-27T16:08:06.764Z,7.64
2023-02-27T16:10:41.684Z,7.63
2023-02-27T16:13:38.527Z,7.52
2023-02-27T16:16:22.360Z,7.53
2023-02-27T16:18:50.074Z,7.42
2023-02-27T16:21:19.448Z,7.38
2023-02-27T16:23:47.073Z,7.22
2023-02-27T16:26:31.027Z,7.11
2023-02-27T16:29:03.855Z,7.05
2023-02-27T16:31:46.056Z,7.13
2023-02-27T16:34:12.733Z,7.02
2023-02-27T16:36:41.968Z,6.96
2023-02-27T16:39:15.010Z,7.11
2023-02-27T16:41:41.665Z,6.82
2023-02-27T16:44:08.764Z,6.93
2023-02-27T16:46:35.542Z,6.93
2023-02-27T16:49:14.264Z,6.92
2023-02-27T16:51:45.984Z,6.93
2023-02-27T16:54:13.739Z,6.84
2023-02-27T16:56:40.995Z,6.84
2023-02-27T16:59:15.888Z,6.62
2023-02-27T17:01:42.781Z,6.58
2023-02-27T17:04:24.663Z,6.56
2023-02-27T17:06:53.331Z,6.41
2023-02-27T17:09:19.962Z,6.26
2023-02-27T17:11:46.716Z,6.27
2023-02-27T17:14:13.480Z,6.21
2023-02-27T17:16:40.221Z,6.34
2023-02-27T17:19:06.911Z,6.29
2023-02-27T17:21:34.905Z,6.06
2023-02-27T17:24:02.178Z,6.05
2023-02-27T17:26:29.318Z,6.18
2023-02-27T17:28:56.445Z,6.06
2023-02-27T17:31:24.175Z,6.00
2023-02-27T17:33:53.511Z,6.17
2023-02-27T17:36:23.689Z,6.08
2023-02-27T17:38:58.128Z,5.92
2023-02-27T17:41:25.167Z,6.03
2023-02-27T17:43:55.219Z,6.10
2023-02-27T17:46:23.834Z,6.07
2023-02-27T17:48:50.644Z,5.97
2023-02-27T17:51:19.116Z,5.94
2023-02-27T17:53:46.094Z,5.85
2023-02-27T17:56:13.493Z,5.96
2023-02-27T17:58:40.728Z,5.90
2023-02-27T18:01:16.992Z,5.85
2023-02-27T18:03:46.599Z,5.86
2023-02-27T18:06:13.465Z,5.93
2023-02-27T18:08:40.443Z,5.87
2023-02-27T18:11:15.651Z,5.92
2023-02-27T18:13:42.832Z,5.77
2023-02-27T18:16:10.418Z,5.88
2023-02-27T18:18:39.492Z,5.78
2023-02-27T18:21:19.872Z,5.77
2023-02-27T18:23:47.771Z,5.84
2023-02-27T18:26:29.468Z,5.86
2023-02-27T18:29:00.134Z,5.76
2023-02-27T18:31:30.687Z,5.75
2023-02-27T18:33:57.485Z,5.72
2023-02-27T18:36:24.745Z,5.75
2023-02-27T18:38:51.642Z,5.68
2023-02-27T18:41:18.364Z,5.67
2023-02-27T18:43:45.117Z,5.66
2023-02-27T18:46:14.813Z,5.68
2023-02-27T18:48:44.430Z,5.46
2023-02-27T18:51:15.433Z,5.60
2023-02-27T18:53:44.473Z,5.60
2023-02-27T18:56:12.438Z,5.53
2023-02-27T18:58:40.536Z,5.35
2023-02-27T19:01:07.768Z,5.39
2023-02-27T19:03:35.782Z,5.34
2023-02-27T19:06:02.544Z,5.33
2023-02-27T19:08:29.404Z,5.35
2023-02-27T19:10:57.197Z,5.38
2023-02-27T19:13:24.762Z,5.31
2023-02-27T19:15:52.283Z,5.32
2023-02-27T19:18:19.246Z,5.31
2023-02-27T19:20:46.177Z,5.22
2023-02-27T19:23:12.834Z,5.24
2023-02-27T19:25:41.837Z,5.19
2023-02-27T19:28:11.145Z,5.21
2023-02-27T19:30:41.019Z,5.26
2023-02-27T19:33:08.413Z,5.24
2023-02-27T19:35:35.068Z,5.24
2023-02-27T19:38:01.748Z,5.24
2023-02-27T19:40:28.563Z,5.22
2023-02-27T19:42:55.415Z,5.12
2023-02-27T19:45:23.122Z,5.11
2023-02-27T19:47:49.794Z,5.14
2023-02-27T19:50:16.957Z,5.12
2023-02-27T19:52:43.570Z,5.10
2023-02-27T19:55:10.531Z,5.19
2023-02-27T19:57:37.329Z,5.25
2023-02-27T20:00:06.640Z,5.27
2023-02-27T20:02:42.037Z,5.20
2023-02-27T20:05:09.393Z,5.19
2023-02-27T20:07:36.119Z,5.24
2023-02-27T20:10:03.697Z,5.28
2023-02-27T20:12:30.452Z,5.22
2023-02-27T20:14:57.123Z,5.20
2023-02-27T20:17:23.750Z,5.02
2023-02-27T20:19:50.426Z,5.06
2023-02-27T20:22:17.094Z,5.03
2023-02-27T20:24:44.688Z,5.04
2023-02-27T20:27:12.063Z,5.07
2023-02-27T20:29:40.310Z,5.18
2023-02-27T20:32:07.118Z,5.06
2023-02-27T20:34:33.966Z,5.11
2023-02-27T20:37:00.674Z,4.96
2023-02-27T20:39:28.452Z,4.92
2023-02-27T20:41:55.377Z,4.97
2023-02-27T20:44:22.035Z,4.94
2023-02-27T20:46:49.534Z,4.98
2023-02-27T20:49:16.839Z,4.91
2023-02-27T20:51:44.411Z,4.84
2023-02-27T20:54:16.466Z,4.89
2023-02-27T20:56:43.317Z,4.85
2023-02-27T20:59:13.634Z,4.91
2023-02-27T21:01:41.539Z,4.93
2023-02-27T21:04:08.797Z,4.84
2023-02-27T21:06:35.585Z,4.82
2023-02-27T21:09:05.898Z,4.78
2023-02-27T21:11:33.271Z,4.86
2023-02-27T21:14:05.257Z,4.86
2023-02-27T21:16:32.750Z,4.65
2023-02-27T21:18:59.410Z,4.71
2023-02-27T21:21:31.839Z,4.74
2023-02-27T21:24:00.182Z,4.63
2023-02-27T21:26:35.314Z,4.61
2023-02-27T21:29:11.504Z,4.65
2023-02-27T21:31:40.389Z,4.74
2023-02-27T21:34:11.425Z,4.69
2023-02-27T21:36:43.870Z,4.70
2023-02-27T21:39:16.506Z,4.82
2023-02-27T21:41:44.324Z,4.77
2023-02-27T21:44:13.985Z,4.71
2023-02-27T21:46:41.267Z,4.72
2023-02-27T21:49:07.900Z,4.75
2023-02-27T21:51:40.468Z,4.78
2023-02-27T21:54:10.722Z,4.76
2023-02-27T21:56:38.318Z,4.88
2023-02-27T21:59:05.246Z,4.73
2023-02-27T22:01:32.680Z,4.80
2023-02-27T22:03:59.707Z,4.74
2023-02-27T22:06:31.952Z,4.70
2023-02-27T22:09:01.539Z,4.58
2023-02-27T22:11:30.385Z,4.44
2023-02-27T22:13:57.386Z,4.26
2023-02-27T22:16:24.628Z,4.28
2023-02-27T22:18:51.798Z,4.19
2023-02-27T22:21:25.156Z,4.33
2023-02-27T22:23:52.796Z,4.34
2023-02-27T22:26:23.930Z,4.31
2023-02-27T22:28:52.213Z,4.39
2023-02-27T22:31:23.249Z,4.30
2023-02-27T22:33:52.948Z,4.40
2023-02-27T22:36:25.857Z,4.36
2023-02-27T22:38:53.234Z,4.38
2023-02-27T22:41:26.178Z,4.31
2023-02-27T22:43:53.339Z,4.32
2023-02-27T22:46:44.952Z,4.28
2023-02-27T22:49:14.931Z,4.28
2023-02-27T22:51:41.978Z,4.27
2023-02-27T22:54:10.210Z,4.24
2023-02-27T22:56:37.409Z,4.26
2023-02-27T22:59:05.222Z,4.23
2023-02-27T23:01:34.359Z,4.09
2023-02-27T23:04:04.018Z,4.13
2023-02-27T23:06:34.445Z,4.07
2023-02-27T23:09:03.524Z,4.09
2023-02-27T23:11:30.443Z,4.01
2023-02-27T23:13:57.475Z,3.98
2023-02-27T23:16:24.959Z,3.98
2023-02-27T23:18:54.756Z,3.94
2023-02-27T23:21:24.219Z,3.95
2023-02-27T23:23:53.787Z,3.90
2023-02-27T23:26:21.176Z,3.87
2023-02-27T23:28:47.808Z,3.85
2023-02-27T23:31:14.477Z,3.80
2023-02-27T23:33:41.198Z,3.78
2023-02-27T23:36:07.947Z,3.73
2023-02-27T23:38:34.624Z,3.77
2023-02-27T23:41:09.513Z,3.64
2023-02-27T23:43:55.509Z,3.67
2023-02-27T23:46:22.255Z,3.68
2023-02-27T23:48:49.172Z,3.66
2023-02-27T23:51:15.946Z,3.65
2023-02-27T23:53:43.152Z,3.67
2023-02-27T23:56:26.663Z,3.63
2023-02-27T23:58:58.504Z,3.60
